createdAt,value
2023-04-26T00:00:13.140Z,142.31
2023-04-26T00:01:13.190Z,141.80
2023-04-26T00:02:13.277Z,142.08
2023-04-26T00:03:13.561Z,141.23
2023-04-26T00:04:13.486Z,141.64
2023-04-26T00:05:13.458Z,141.49
2023-04-26T00:06:13.433Z,141.59
2023-04-26T00:07:13.521Z,141.73
2023-04-26T00:08:13.566Z,139.90
2023-04-26T00:09:13.588Z,140.15
2023-04-26T00:10:13.646Z,139.98
2023-04-26T00:11:13.684Z,139.76
2023-04-26T00:12:13.735Z,139.95
2023-04-26T00:13:13.800Z,139.82
2023-04-26T00:14:13.870Z,139.56
2023-04-26T00:15:13.906Z,140.49
2023-04-26T00:16:14.024Z,139.24
2023-04-26T00:17:14.015Z,139.04
2023-04-26T00:18:14.100Z,139.25
2023-04-26T00:19:14.123Z,141.48
2023-04-26T00:20:14.191Z,140.47
2023-04-26T00:21:14.234Z,140.17
2023-04-26T00:22:14.285Z,139.40
2023-04-26T00:23:14.350Z,140.71
2023-04-26T00:24:14.397Z,140.87
2023-04-26T00:25:14.446Z,139.98
2023-04-26T00:26:14.507Z,142.05
2023-04-26T00:27:14.557Z,140.26
2023-04-26T00:28:14.612Z,139.80
2023-04-26T00:29:14.667Z,139.47
2023-04-26T00:30:14.731Z,140.85
2023-04-26T00:31:14.804Z,138.96
2023-04-26T00:32:14.846Z,138.94
2023-04-26T00:33:14.892Z,140.49
2023-04-26T00:34:14.945Z,140.18
2023-04-26T00:35:15.013Z,137.87
2023-04-26T00:36:15.047Z,138.62
2023-04-26T00:37:15.098Z,139.44
2023-04-26T00:38:15.154Z,139.95
2023-04-26T00:39:15.209Z,138.55
2023-04-26T00:40:15.246Z,138.17
2023-04-26T00:41:15.298Z,139.31
2023-04-26T00:42:15.369Z,137.25
2023-04-26T00:43:15.401Z,138.52
2023-04-26T00:44:15.459Z,138.76
2023-04-26T00:45:15.515Z,139.57
2023-04-26T00:46:15.616Z,137.24
2023-04-26T00:47:15.591Z,138.33
2023-04-26T00:48:15.644Z,139.59
2023-04-26T00:49:15.697Z,137.93
2023-04-26T00:50:15.755Z,138.81
2023-04-26T00:51:15.790Z,136.38
2023-04-26T00:52:15.853Z,137.86
2023-04-26T00:53:15.889Z,137.51
2023-04-26T00:54:15.930Z,136.31
2023-04-26T00:55:15.994Z,137.92
2023-04-26T00:56:16.034Z,135.48
2023-04-26T00:57:16.079Z,136.58
2023-04-26T00:58:16.150Z,139.33
2023-04-26T00:59:16.188Z,136.88
2023-04-26T01:00:16.248Z,138.38
2023-04-26T01:01:16.329Z,136.89
2023-04-26T01:02:16.412Z,136.46
2023-04-26T01:03:16.509Z,136.76
2023-04-26T01:04:16.569Z,137.33
2023-04-26T01:05:16.502Z,136.01
2023-04-26T01:06:16.652Z,138.08
2023-04-26T01:07:16.610Z,136.28
2023-04-26T01:08:16.668Z,135.83
2023-04-26T01:09:16.716Z,135.78
2023-04-26T01:10:16.775Z,135.36
2023-04-26T01:11:16.827Z,135.69
2023-04-26T01:12:16.886Z,134.96
2023-04-26T01:13:16.944Z,135.85
2023-04-26T01:14:17.027Z,134.22
2023-04-26T01:15:17.084Z,136.83
2023-04-26T01:16:17.109Z,135.01
2023-04-26T01:17:17.238Z,136.87
2023-04-26T01:18:17.222Z,134.81
2023-04-26T01:19:17.279Z,135.94
2023-04-26T01:20:17.351Z,134.66
2023-04-26T01:21:17.400Z,135.32
2023-04-26T01:22:17.458Z,135.53
2023-04-26T01:23:17.523Z,135.08
2023-04-26T01:24:17.560Z,133.65
2023-04-26T01:25:17.626Z,135.11
2023-04-26T01:26:17.691Z,134.85
2023-04-26T01:27:17.753Z,133.95
2023-04-26T01:28:17.801Z,132.98
2023-04-26T01:29:17.894Z,134.23
2023-04-26T01:30:17.919Z,133.79
2023-04-26T01:31:17.990Z,132.93
2023-04-26T01:32:18.012Z,133.31
2023-04-26T01:33:18.066Z,134.05
2023-04-26T01:34:18.145Z,132.88
2023-04-26T01:35:18.172Z,132.34
2023-04-26T01:36:18.223Z,133.84
2023-04-26T01:37:18.272Z,133.27
2023-04-26T01:38:18.328Z,132.31
2023-04-26T01:39:18.378Z,132.05
2023-04-26T01:40:18.427Z,131.71
2023-04-26T01:41:18.468Z,132.29
2023-04-26T01:42:18.514Z,133.04
2023-04-26T01:43:18.563Z,132.17
2023-04-26T01:44:18.599Z,131.39
2023-04-26T01:45:18.665Z,132.69
2023-04-26T01:46:18.710Z,131.37
2023-04-26T01:47:18.737Z,130.17
2023-04-26T01:48:18.784Z,130.34
2023-04-26T01:49:18.834Z,128.75
2023-04-26T01:50:18.872Z,128.93
2023-04-26T01:51:18.918Z,129.78
2023-04-26T01:52:18.965Z,130.82
2023-04-26T01:53:18.985Z,130.36
2023-04-26T01:54:19.028Z,129.73
2023-04-26T01:55:19.067Z,128.72
2023-04-26T01:56:19.106Z,129.25
2023-04-26T01:57:19.143Z,128.65
2023-04-26T01:58:19.178Z,127.22
2023-04-26T01:59:19.227Z,128.48
2023-04-26T02:00:19.254Z,127.51
2023-04-26T02:01:19.317Z,127.79
2023-04-26T02:02:19.339Z,127.11
2023-04-26T02:03:19.481Z,125.24
2023-04-26T02:04:19.415Z,125.78
2023-04-26T02:05:19.547Z,125.97
2023-04-26T02:06:19.493Z,126.50
2023-04-26T02:07:19.529Z,125.89
2023-04-26T02:08:19.570Z,125.22
2023-04-26T02:09:19.622Z,126.94
2023-04-26T02:10:19.658Z,126.29
2023-04-26T02:11:19.720Z,125.35
2023-04-26T02:12:19.750Z,124.48
2023-04-26T02:13:19.792Z,125.71
2023-04-26T02:14:19.847Z,124.80
2023-04-26T02:15:19.899Z,124.57
2023-04-26T02:16:19.986Z,124.90
2023-04-26T02:17:19.973Z,125.01
2023-04-26T02:18:20.014Z,124.84
2023-04-26T02:19:20.083Z,123.68
2023-04-26T02:20:20.115Z,124.83
2023-04-26T02:21:20.149Z,123.04
2023-04-26T02:22:20.196Z,124.46
2023-04-26T02:23:20.266Z,124.22
2023-04-26T02:24:20.277Z,123.81
2023-04-26T02:25:20.328Z,123.99
2023-04-26T02:26:20.371Z,123.17
2023-04-26T02:27:20.433Z,124.71
2023-04-26T02:28:20.471Z,124.67
2023-04-26T02:29:26.901Z,124.78
2023-04-26T02:30:21.501Z,124.93
2023-04-26T02:31:22.900Z,125.03
2023-04-26T02:32:20.480Z,125.35
2023-04-26T02:33:20.465Z,125.97
2023-04-26T02:34:20.473Z,124.54
2023-04-26T02:35:20.447Z,124.79
2023-04-26T02:36:20.440Z,124.52
2023-04-26T02:37:20.415Z,125.02
2023-04-26T02:38:20.414Z,124.16
2023-04-26T02:39:20.402Z,123.20
2023-04-26T02:40:20.415Z,124.57
2023-04-26T02:41:20.394Z,123.45
2023-04-26T02:42:20.392Z,122.41
2023-04-26T02:43:20.378Z,124.35
2023-04-26T02:44:20.365Z,124.63
2023-04-26T02:45:20.354Z,121.92
2023-04-26T02:46:20.361Z,122.95
2023-04-26T02:47:20.331Z,123.26
2023-04-26T02:48:20.314Z,122.45
2023-04-26T02:49:20.306Z,122.11
2023-04-26T02:50:20.321Z,122.19
2023-04-26T02:51:20.278Z,123.15
2023-04-26T02:52:20.270Z,121.89
2023-04-26T02:53:20.249Z,122.15
2023-04-26T02:54:20.240Z,122.25
2023-04-26T02:55:20.233Z,121.58
2023-04-26T02:56:20.212Z,121.95
2023-04-26T02:57:20.200Z,122.06
2023-04-26T02:58:20.182Z,121.93
2023-04-26T02:59:20.171Z,120.96
2023-04-26T03:00:20.154Z,122.09
2023-04-26T03:01:20.159Z,122.43
2023-04-26T03:02:20.242Z,121.80
2023-04-26T03:03:20.402Z,121.93
2023-04-26T03:04:20.173Z,121.02
2023-04-26T03:05:20.111Z,121.34
2023-04-26T03:06:20.076Z,121.50
2023-04-26T03:07:20.072Z,121.58
2023-04-26T03:08:20.046Z,120.43
2023-04-26T03:09:20.038Z,120.90
2023-04-26T03:10:20.031Z,121.31
2023-04-26T03:11:20.033Z,120.59
2023-04-26T03:12:20.021Z,121.66
2023-04-26T03:13:20.041Z,120.16
2023-04-26T03:14:20.055Z,122.35
2023-04-26T03:15:19.983Z,120.63
2023-04-26T03:16:20.005Z,121.59
2023-04-26T03:17:19.981Z,119.86
2023-04-26T03:18:19.947Z,119.96
2023-04-26T03:19:19.947Z,120.08
2023-04-26T03:20:19.920Z,120.76
2023-04-26T03:21:19.955Z,119.90
2023-04-26T03:22:19.994Z,122.06
2023-04-26T03:23:20.044Z,121.40
2023-04-26T03:24:20.089Z,118.58
2023-04-26T03:25:20.135Z,118.74
2023-04-26T03:26:20.182Z,118.68
2023-04-26T03:27:20.281Z,119.90
2023-04-26T03:28:20.270Z,119.59
2023-04-26T03:29:20.323Z,120.06
2023-04-26T03:30:20.368Z,119.89
2023-04-26T03:31:20.464Z,118.99
2023-04-26T03:32:20.461Z,118.04
2023-04-26T03:33:20.510Z,118.33
2023-04-26T03:34:20.558Z,118.46
2023-04-26T03:35:20.602Z,119.95
2023-04-26T03:36:20.656Z,118.34
2023-04-26T03:37:20.684Z,118.13
2023-04-26T03:38:20.721Z,118.47
2023-04-26T03:39:20.777Z,118.93
2023-04-26T03:40:20.811Z,118.10
2023-04-26T03:41:20.865Z,119.17
2023-04-26T03:42:20.903Z,118.27
2023-04-26T03:43:20.940Z,118.39
2023-04-26T03:44:20.982Z,118.59
2023-04-26T03:45:21.024Z,118.50
2023-04-26T03:46:21.081Z,117.95
2023-04-26T03:47:21.117Z,118.11
2023-04-26T03:48:21.160Z,117.67
2023-04-26T03:49:21.198Z,117.31
2023-04-26T03:50:21.254Z,117.84
2023-04-26T03:51:21.280Z,117.32
2023-04-26T03:52:21.328Z,116.21
2023-04-26T03:53:21.374Z,118.26
2023-04-26T03:54:21.426Z,117.46
2023-04-26T03:55:21.474Z,118.41
2023-04-26T03:56:21.501Z,116.41
2023-04-26T03:57:21.563Z,116.94
2023-04-26T03:58:21.612Z,118.34
2023-04-26T03:59:21.653Z,116.00
2023-04-26T04:00:21.710Z,116.79
2023-04-26T04:01:21.769Z,117.81
2023-04-26T04:02:21.901Z,117.08
2023-04-26T04:03:22.031Z,117.79
2023-04-26T04:04:22.042Z,117.28
2023-04-26T04:05:22.013Z,115.80
2023-04-26T04:06:21.973Z,116.86
2023-04-26T04:07:22.011Z,116.53
2023-04-26T04:08:22.054Z,116.23
2023-04-26T04:09:22.119Z,115.59
2023-04-26T04:10:22.152Z,116.68
2023-04-26T04:11:22.219Z,116.27
2023-04-26T04:12:22.238Z,115.46
2023-04-26T04:13:22.311Z,115.42
2023-04-26T04:14:22.338Z,115.73
2023-04-26T04:15:22.375Z,116.65
2023-04-26T04:16:22.536Z,115.55
2023-04-26T04:17:22.485Z,116.34
2023-04-26T04:18:22.506Z,115.14
2023-04-26T04:19:22.558Z,115.07
2023-04-26T04:20:22.579Z,117.33
2023-04-26T04:21:22.620Z,115.59
2023-04-26T04:22:22.654Z,117.39
2023-04-26T04:23:22.687Z,116.39
2023-04-26T04:24:22.731Z,114.09
2023-04-26T04:25:22.782Z,116.26
2023-04-26T04:26:22.806Z,114.66
2023-04-26T04:27:22.845Z,115.43
2023-04-26T04:28:22.886Z,114.61
2023-04-26T04:29:22.939Z,114.63
2023-04-26T04:30:23.001Z,115.47
2023-04-26T04:31:23.088Z,115.84
2023-04-26T04:32:23.086Z,114.69
2023-04-26T04:33:23.112Z,116.20
2023-04-26T04:34:23.141Z,115.60
2023-04-26T04:35:23.189Z,115.99
2023-04-26T04:36:23.237Z,115.97
2023-04-26T04:37:23.282Z,116.80
2023-04-26T04:38:23.380Z,116.40
2023-04-26T04:39:23.366Z,115.90
2023-04-26T04:40:23.415Z,115.91
2023-04-26T04:41:23.514Z,115.72
2023-04-26T04:42:23.513Z,115.12
2023-04-26T04:43:23.549Z,115.88
2023-04-26T04:44:23.597Z,114.90
2023-04-26T04:45:23.639Z,116.38
2023-04-26T04:46:23.709Z,115.13
2023-04-26T04:47:23.794Z,114.87
2023-04-26T04:48:23.779Z,114.33
2023-04-26T04:49:23.816Z,114.43
2023-04-26T04:50:23.871Z,112.12
2023-04-26T04:51:23.904Z,113.73
2023-04-26T04:52:23.947Z,111.24
2023-04-26T04:53:23.988Z,111.14
2023-04-26T04:54:24.039Z,111.54
2023-04-26T04:55:24.075Z,109.76
2023-04-26T04:56:24.137Z,109.77
2023-04-26T04:57:24.164Z,110.56
2023-04-26T04:58:24.195Z,110.46
2023-04-26T04:59:24.237Z,110.50
2023-04-26T05:00:24.278Z,110.00
2023-04-26T05:01:24.349Z,108.92
2023-04-26T05:02:24.474Z,109.12
2023-04-26T05:03:24.594Z,109.65
2023-04-26T05:04:24.676Z,108.74
2023-04-26T05:05:24.469Z,109.35
2023-04-26T05:06:24.502Z,108.39
2023-04-26T05:07:24.776Z,109.28
2023-04-26T05:08:24.584Z,108.13
2023-04-26T05:09:24.618Z,108.97
2023-04-26T05:10:24.648Z,107.96
2023-04-26T05:11:24.679Z,109.34
2023-04-26T05:12:24.703Z,108.12
2023-04-26T05:13:24.727Z,108.80
2023-04-26T05:14:24.757Z,108.89
2023-04-26T05:15:24.797Z,108.32
2023-04-26T05:16:24.893Z,108.88
2023-04-26T05:17:24.884Z,108.51
2023-04-26T05:18:24.890Z,107.95
2023-04-26T05:19:24.915Z,107.42
2023-04-26T05:20:24.987Z,110.92
2023-04-26T05:21:24.973Z,115.83
2023-04-26T05:22:25.007Z,110.72
2023-04-26T05:23:25.040Z,118.97
2023-04-26T05:24:25.074Z,118.26
2023-04-26T05:25:25.078Z,122.54
2023-04-26T05:26:25.101Z,120.89
2023-04-26T05:27:25.129Z,119.41
2023-04-26T05:28:25.132Z,120.80
2023-04-26T05:29:25.153Z,121.62
2023-04-26T05:30:25.167Z,120.10
2023-04-26T05:31:25.223Z,121.71
2023-04-26T05:32:25.186Z,122.22
2023-04-26T05:33:25.270Z,121.37
2023-04-26T05:34:25.216Z,121.94
2023-04-26T05:35:25.235Z,120.41
2023-04-26T05:36:26.397Z,121.68
2023-04-26T05:37:25.257Z,121.31
2023-04-26T05:38:25.279Z,120.06
2023-04-26T05:39:25.297Z,120.84
2023-04-26T05:40:25.315Z,120.35
2023-04-26T05:41:25.318Z,120.69
2023-04-26T05:42:25.331Z,121.23
2023-04-26T05:43:25.353Z,121.84
2023-04-26T05:44:25.367Z,121.96
2023-04-26T05:45:25.415Z,121.58
2023-04-26T05:46:25.401Z,122.22
2023-04-26T05:47:25.385Z,124.01
2023-04-26T05:48:25.400Z,124.17
2023-04-26T05:49:25.403Z,123.39
2023-04-26T05:50:25.409Z,124.13
2023-04-26T05:51:25.424Z,126.43
2023-04-26T05:52:25.433Z,125.90
2023-04-26T05:53:25.439Z,125.08
2023-04-26T05:54:25.443Z,125.56
2023-04-26T05:55:25.479Z,124.37
2023-04-26T05:56:25.450Z,124.26
2023-04-26T05:57:25.477Z,124.27
2023-04-26T05:58:25.447Z,124.27
2023-04-26T05:59:25.439Z,125.71
2023-04-26T06:00:25.434Z,125.95
2023-04-26T06:01:25.428Z,126.47
2023-04-26T06:02:25.632Z,127.57
2023-04-26T06:03:25.513Z,128.35
2023-04-26T06:04:25.526Z,128.82
2023-04-26T06:05:25.514Z,127.87
2023-04-26T06:06:25.389Z,128.23
2023-04-26T06:07:25.377Z,129.12
2023-04-26T06:08:25.394Z,126.97
2023-04-26T06:09:25.424Z,127.14
2023-04-26T06:10:25.445Z,129.96
2023-04-26T06:11:25.371Z,131.73
2023-04-26T06:12:25.379Z,130.87
2023-04-26T06:13:25.364Z,130.91
2023-04-26T06:14:30.473Z,129.45
2023-04-26T06:15:26.342Z,129.65
2023-04-26T06:16:25.335Z,130.15
2023-04-26T06:17:25.401Z,129.57
2023-04-26T06:18:25.276Z,131.04
2023-04-26T06:19:25.282Z,129.74
2023-04-26T06:20:25.222Z,130.88
2023-04-26T06:21:25.208Z,130.38
2023-04-26T06:22:25.190Z,129.16
2023-04-26T06:23:25.196Z,129.39
2023-04-26T06:24:25.231Z,95.40
2023-04-26T06:25:25.258Z,51.18
2023-04-26T06:26:25.276Z,9.38
2023-04-26T06:27:25.269Z,3.23
2023-04-26T06:28:25.297Z,18.37
2023-04-26T06:29:25.395Z,26.93
2023-04-26T06:30:25.421Z,25.75
2023-04-26T06:31:25.517Z,25.00
2023-04-26T06:32:25.591Z,24.96
2023-04-26T06:33:25.592Z,24.17
2023-04-26T06:34:25.620Z,25.00
2023-04-26T06:35:25.658Z,23.88
2023-04-26T06:36:25.665Z,24.86
2023-04-26T06:37:25.674Z,25.38
2023-04-26T06:38:25.691Z,21.56
2023-04-26T06:39:25.726Z,25.00
2023-04-26T06:40:25.741Z,25.00
2023-04-26T06:41:25.746Z,25.00
2023-04-26T06:42:25.806Z,43.49
2023-04-26T06:43:25.774Z,49.84
2023-04-26T06:44:25.812Z,41.19
2023-04-26T06:45:25.813Z,36.00
2023-04-26T06:46:25.867Z,35.98
2023-04-26T06:47:25.905Z,37.22
2023-04-26T06:48:25.856Z,35.86
2023-04-26T06:49:25.862Z,31.28
2023-04-26T06:50:26.008Z,28.80
2023-04-26T06:51:25.904Z,25.58
2023-04-26T06:52:25.968Z,27.84
2023-04-26T06:53:26.018Z,31.39
2023-04-26T06:54:26.049Z,25.00
2023-04-26T06:55:26.094Z,25.00
2023-04-26T06:56:26.154Z,25.82
2023-04-26T06:57:26.230Z,25.33
2023-04-26T06:58:26.515Z,24.89
2023-04-26T06:59:26.269Z,26.92
2023-04-26T07:00:26.306Z,28.70
2023-04-26T07:01:26.368Z,40.79
2023-04-26T07:02:26.557Z,45.02
2023-04-26T07:03:26.609Z,55.38
2023-04-26T07:04:26.648Z,59.95
2023-04-26T07:05:26.581Z,60.41
2023-04-26T07:06:27.370Z,62.17
2023-04-26T07:07:26.654Z,61.20
2023-04-26T07:08:26.693Z,58.88
2023-04-26T07:09:26.715Z,68.12
2023-04-26T07:10:26.785Z,70.63
2023-04-26T07:11:26.790Z,68.62
2023-04-26T07:12:26.796Z,68.26
2023-04-26T07:13:26.950Z,66.30
2023-04-26T07:14:26.875Z,69.17
2023-04-26T07:15:26.956Z,68.73
2023-04-26T07:16:27.055Z,70.24
2023-04-26T07:17:26.908Z,72.76
2023-04-26T07:18:26.923Z,78.01
2023-04-26T07:19:26.907Z,83.34
2023-04-26T07:20:26.913Z,87.81
2023-04-26T07:21:26.980Z,89.67
2023-04-26T07:22:26.914Z,93.29
2023-04-26T07:23:26.891Z,97.47
2023-04-26T07:24:26.870Z,105.08
2023-04-26T07:25:26.870Z,114.92
2023-04-26T07:26:26.918Z,121.49
2023-04-26T07:27:26.806Z,121.79
2023-04-26T07:28:26.768Z,123.51
2023-04-26T07:29:26.742Z,127.96
2023-04-26T07:30:26.810Z,135.89
2023-04-26T07:31:26.672Z,148.26
2023-04-26T07:32:26.689Z,153.51
2023-04-26T07:33:26.671Z,157.63
2023-04-26T07:34:26.579Z,160.07
2023-04-26T07:35:26.548Z,163.29
2023-04-26T07:36:26.514Z,165.48
2023-04-26T07:37:26.466Z,167.65
2023-04-26T07:38:26.437Z,170.56
2023-04-26T07:39:26.468Z,172.90
2023-04-26T07:40:26.471Z,175.84
2023-04-26T07:41:26.482Z,178.28
2023-04-26T07:42:26.510Z,180.90
2023-04-26T07:43:26.547Z,184.06
2023-04-26T07:44:26.561Z,185.29
2023-04-26T07:45:26.588Z,187.57
2023-04-26T07:46:26.644Z,191.18
2023-04-26T07:47:26.667Z,192.15
2023-04-26T07:48:26.634Z,193.10
2023-04-26T07:49:26.660Z,195.42
2023-04-26T07:50:26.672Z,198.00
2023-04-26T07:51:26.688Z,201.66
2023-04-26T07:52:26.692Z,204.55
2023-04-26T07:53:26.660Z,204.72
2023-04-26T07:54:26.641Z,205.33
2023-04-26T07:55:26.592Z,207.10
2023-04-26T07:56:26.555Z,209.76
2023-04-26T07:57:26.506Z,215.21
2023-04-26T07:58:26.479Z,217.15
2023-04-26T07:59:26.427Z,219.60
2023-04-26T08:00:26.393Z,221.95
2023-04-26T08:01:26.349Z,222.08
2023-04-26T08:02:41.056Z,222.70
2023-04-26T08:03:27.570Z,222.27
2023-04-26T08:04:26.484Z,223.40
2023-04-26T08:05:26.473Z,225.18
2023-04-26T08:06:26.187Z,230.09
2023-04-26T08:07:26.118Z,222.48
2023-04-26T08:08:26.087Z,224.50
2023-04-26T08:09:26.047Z,228.02
2023-04-26T08:10:26.014Z,233.00
2023-04-26T08:11:26.000Z,242.79
2023-04-26T08:12:25.930Z,244.20
2023-04-26T08:13:29.155Z,244.28
2023-04-26T08:14:25.851Z,244.32
2023-04-26T08:15:25.800Z,244.66
2023-04-26T08:16:25.815Z,244.77
2023-04-26T08:17:25.820Z,245.18
2023-04-26T08:18:25.698Z,243.88
2023-04-26T08:19:25.656Z,239.99
2023-04-26T08:20:25.620Z,211.02
2023-04-26T08:21:25.583Z,187.02
2023-04-26T08:22:25.542Z,170.93
2023-04-26T08:23:25.522Z,157.94
2023-04-26T08:24:26.392Z,147.56
2023-04-26T08:25:26.300Z,136.82
2023-04-26T08:26:25.452Z,118.02
2023-04-26T08:27:25.422Z,105.12
2023-04-26T08:28:25.397Z,97.74
2023-04-26T08:29:25.394Z,85.69
2023-04-26T08:30:25.375Z,76.62
2023-04-26T08:31:25.452Z,67.95
2023-04-26T08:32:25.374Z,71.07
2023-04-26T08:33:25.302Z,77.56
2023-04-26T08:34:25.281Z,86.29
2023-04-26T08:35:25.258Z,81.88
2023-04-26T08:36:25.229Z,85.61
2023-04-26T08:37:25.348Z,81.04
2023-04-26T08:38:25.189Z,85.69
2023-04-26T08:39:25.161Z,85.43
2023-04-26T08:40:25.136Z,90.31
2023-04-26T08:41:25.102Z,83.96
2023-04-26T08:42:25.084Z,86.41
2023-04-26T08:43:25.061Z,86.29
2023-04-26T08:44:25.056Z,99.00
2023-04-26T08:45:25.051Z,93.07
2023-04-26T08:46:25.003Z,92.32
2023-04-26T08:47:24.965Z,86.84
2023-04-26T08:48:24.926Z,80.96
2023-04-26T08:49:25.406Z,86.19
2023-04-26T08:50:24.961Z,87.32
2023-04-26T08:51:24.824Z,78.00
2023-04-26T08:52:24.785Z,79.57
2023-04-26T08:53:24.756Z,82.12
2023-04-26T08:54:24.772Z,79.25
2023-04-26T08:55:24.770Z,79.98
2023-04-26T08:56:24.728Z,74.01
2023-04-26T08:57:24.778Z,69.28
2023-04-26T08:58:24.829Z,67.20
2023-04-26T08:59:24.826Z,69.10
2023-04-26T09:00:24.876Z,69.83
2023-04-26T09:01:24.957Z,69.59
2023-04-26T09:02:25.245Z,67.36
2023-04-26T09:03:25.093Z,64.23
2023-04-26T09:04:25.165Z,60.93
2023-04-26T09:05:25.072Z,62.77
2023-04-26T09:06:25.090Z,59.69
2023-04-26T09:07:25.122Z,59.28
2023-04-26T09:08:26.096Z,59.57
2023-04-26T09:09:25.496Z,59.84
2023-04-26T09:10:25.039Z,59.75
2023-04-26T09:11:25.004Z,62.22
2023-04-26T09:12:24.979Z,57.55
2023-04-26T09:13:24.928Z,59.97
2023-04-26T09:14:24.904Z,62.82
2023-04-26T09:15:24.879Z,71.22
2023-04-26T09:16:24.959Z,81.28
2023-04-26T09:17:24.968Z,86.80
2023-04-26T09:18:24.965Z,92.40
2023-04-26T09:19:24.992Z,96.42
2023-04-26T09:20:25.014Z,99.97
2023-04-26T09:21:25.038Z,103.65
2023-04-26T09:22:25.089Z,105.79
2023-04-26T09:23:25.112Z,107.69
2023-04-26T09:24:25.171Z,109.90
2023-04-26T09:25:25.900Z,110.60
2023-04-26T09:26:25.193Z,112.36
2023-04-26T09:27:25.830Z,113.69
2023-04-26T09:28:25.302Z,114.44
2023-04-26T09:29:25.289Z,116.88
2023-04-26T09:30:25.318Z,118.21
2023-04-26T09:31:25.381Z,120.26
2023-04-26T09:32:25.382Z,120.31
2023-04-26T09:33:25.506Z,121.28
2023-04-26T09:34:25.463Z,122.70
2023-04-26T09:35:25.452Z,123.87
2023-04-26T09:36:25.479Z,123.62
2023-04-26T09:37:25.506Z,126.24
2023-04-26T09:38:25.598Z,125.48
2023-04-26T09:39:25.538Z,126.79
2023-04-26T09:40:25.568Z,127.81
2023-04-26T09:41:26.330Z,128.13
2023-04-26T09:42:25.553Z,128.23
2023-04-26T09:43:25.576Z,128.73
2023-04-26T09:44:25.615Z,128.99
2023-04-26T09:45:25.598Z,129.80
2023-04-26T09:46:25.725Z,129.97
2023-04-26T09:47:25.760Z,128.87
2023-04-26T09:48:25.754Z,130.87
2023-04-26T09:49:25.748Z,131.10
2023-04-26T09:50:25.761Z,131.67
2023-04-26T09:51:25.762Z,131.62
2023-04-26T09:52:25.798Z,132.82
2023-04-26T09:53:25.841Z,132.60
2023-04-26T09:54:25.843Z,132.76
2023-04-26T09:55:34.774Z,134.00
2023-04-26T09:56:26.814Z,134.07
2023-04-26T09:57:26.770Z,134.20
2023-04-26T09:58:25.745Z,134.58
2023-04-26T09:59:25.752Z,134.88
2023-04-26T10:00:25.715Z,135.70
2023-04-26T10:01:25.829Z,136.81
2023-04-26T10:02:25.737Z,135.53
2023-04-26T10:03:25.689Z,134.65
2023-04-26T10:04:25.653Z,136.39
2023-04-26T10:05:25.552Z,135.20
2023-04-26T10:06:25.522Z,135.20
2023-04-26T10:07:25.496Z,136.90
2023-04-26T10:08:25.466Z,134.73
2023-04-26T10:09:25.436Z,135.79
2023-04-26T10:10:25.395Z,136.57
2023-04-26T10:11:25.373Z,135.51
2023-04-26T10:12:25.333Z,136.68
2023-04-26T10:13:25.310Z,135.92
2023-04-26T10:14:25.266Z,136.69
2023-04-26T10:15:25.233Z,137.00
2023-04-26T10:16:25.208Z,135.89
2023-04-26T10:17:25.217Z,136.52
2023-04-26T10:18:25.150Z,137.36
2023-04-26T10:19:25.098Z,138.32
2023-04-26T10:20:25.061Z,137.40
2023-04-26T10:21:25.105Z,138.46
2023-04-26T10:22:25.011Z,137.35
2023-04-26T10:23:24.974Z,136.34
2023-04-26T10:24:24.949Z,137.77
2023-04-26T10:25:24.932Z,137.49
2023-04-26T10:26:24.908Z,137.39
2023-04-26T10:27:24.883Z,138.69
2023-04-26T10:28:24.858Z,137.96
2023-04-26T10:29:24.828Z,138.49
2023-04-26T10:30:24.803Z,138.29
2023-04-26T10:31:24.817Z,136.90
2023-04-26T10:32:24.751Z,138.77
2023-04-26T10:33:24.804Z,137.48
2023-04-26T10:34:24.700Z,138.40
2023-04-26T10:35:24.702Z,138.96
2023-04-26T10:36:24.685Z,139.62
2023-04-26T10:37:24.640Z,138.77
2023-04-26T10:38:24.628Z,140.11
2023-04-26T10:39:24.663Z,140.45
2023-04-26T10:40:24.740Z,139.55
2023-04-26T10:41:24.753Z,139.55
2023-04-26T10:42:25.874Z,140.08
2023-04-26T10:43:26.121Z,139.57
2023-04-26T10:44:24.811Z,139.98
2023-04-26T10:45:24.847Z,138.38
2023-04-26T10:46:24.882Z,139.43
2023-04-26T10:47:24.929Z,140.36
2023-04-26T10:48:24.898Z,139.97
2023-04-26T10:49:26.648Z,139.37
2023-04-26T10:50:24.911Z,139.79
2023-04-26T10:51:24.944Z,139.11
2023-04-26T10:52:24.964Z,138.95
2023-04-26T10:53:24.968Z,139.47
2023-04-26T10:54:24.976Z,138.48
2023-04-26T10:55:25.540Z,139.52
2023-04-26T10:56:24.968Z,139.86
2023-04-26T10:57:24.975Z,139.68
2023-04-26T10:58:25.019Z,139.69
2023-04-26T10:59:39.710Z,138.59
2023-04-26T11:00:26.784Z,138.71
2023-04-26T11:01:25.073Z,139.24
2023-04-26T11:02:25.150Z,139.27
2023-04-26T11:03:25.362Z,139.63
2023-04-26T11:04:25.268Z,140.64
2023-04-26T11:05:25.522Z,141.21
2023-04-26T11:06:25.192Z,140.11
2023-04-26T11:07:25.217Z,140.34
2023-04-26T11:08:25.208Z,141.11
2023-04-26T11:09:25.179Z,141.50
2023-04-26T11:10:25.201Z,139.15
2023-04-26T11:11:25.272Z,141.28
2023-04-26T11:12:25.251Z,141.39
2023-04-26T11:13:25.267Z,140.77
2023-04-26T11:14:25.337Z,141.54
2023-04-26T11:15:25.378Z,141.46
2023-04-26T11:16:25.453Z,140.93
2023-04-26T11:17:25.529Z,141.74
2023-04-26T11:18:25.515Z,141.14
2023-04-26T11:19:25.504Z,140.65
2023-04-26T11:20:25.525Z,141.26
2023-04-26T11:21:25.556Z,141.42
2023-04-26T11:22:25.611Z,140.11
2023-04-26T11:23:25.633Z,141.20
2023-04-26T11:24:25.644Z,140.70
2023-04-26T11:25:25.671Z,141.30
2023-04-26T11:26:25.860Z,141.72
2023-04-26T11:27:25.752Z,141.07
2023-04-26T11:28:25.777Z,141.80
2023-04-26T11:29:25.812Z,141.41
2023-04-26T11:30:25.890Z,141.64
2023-04-26T11:31:25.919Z,141.49
2023-04-26T11:32:25.903Z,142.18
2023-04-26T11:33:25.887Z,140.80
2023-04-26T11:34:25.895Z,140.11
2023-04-26T11:35:25.956Z,140.55
2023-04-26T11:36:25.966Z,142.68
2023-04-26T11:37:25.963Z,140.94
2023-04-26T11:38:25.970Z,141.44
2023-04-26T11:39:25.991Z,142.34
2023-04-26T11:40:26.013Z,141.73
2023-04-26T11:41:26.035Z,141.45
2023-04-26T11:42:26.070Z,139.77
2023-04-26T11:43:26.111Z,141.82
2023-04-26T11:44:26.093Z,140.49
2023-04-26T11:45:26.145Z,140.29
2023-04-26T11:46:26.270Z,141.32
2023-04-26T11:47:26.241Z,142.14
2023-04-26T11:48:26.294Z,141.90
2023-04-26T11:49:26.297Z,141.72
2023-04-26T11:50:26.339Z,141.96
2023-04-26T11:51:26.370Z,143.05
2023-04-26T11:52:26.430Z,142.84
2023-04-26T11:53:26.428Z,142.62
2023-04-26T11:54:26.465Z,143.15
2023-04-26T11:55:26.470Z,143.04
2023-04-26T11:56:26.492Z,141.46
2023-04-26T11:57:26.527Z,141.64
2023-04-26T11:58:26.600Z,142.74
2023-04-26T11:59:26.614Z,142.16
2023-04-26T12:00:26.644Z,142.69
2023-04-26T12:01:26.669Z,142.21
2023-04-26T12:02:26.803Z,141.93
2023-04-26T12:03:26.987Z,142.45
2023-04-26T12:04:29.074Z,143.09
2023-04-26T12:05:26.849Z,144.02
2023-04-26T12:06:26.704Z,144.03
2023-04-26T12:07:26.695Z,143.75
2023-04-26T12:08:26.658Z,142.40
2023-04-26T12:09:26.623Z,143.54
2023-04-26T12:10:26.609Z,142.72
2023-04-26T12:11:26.591Z,143.47
2023-04-26T12:12:26.565Z,143.41
2023-04-26T12:13:26.555Z,144.44
2023-04-26T12:14:26.538Z,143.38
2023-04-26T12:15:26.513Z,142.81
2023-04-26T12:16:27.259Z,143.72
2023-04-26T12:17:26.601Z,144.16
2023-04-26T12:18:26.686Z,144.30
2023-04-26T12:19:26.417Z,143.37
2023-04-26T12:20:26.395Z,143.77
2023-04-26T12:21:28.899Z,143.88
2023-04-26T12:22:26.340Z,144.03
2023-04-26T12:23:26.313Z,144.11
2023-04-26T12:24:26.293Z,144.32
2023-04-26T12:25:26.271Z,144.06
2023-04-26T12:26:26.256Z,142.80
2023-04-26T12:27:26.221Z,144.55
2023-04-26T12:28:26.194Z,143.80
2023-04-26T12:29:26.168Z,143.56
2023-04-26T12:30:26.133Z,143.98
2023-04-26T12:31:26.168Z,143.81
2023-04-26T12:32:26.096Z,144.56